createdAt,value
2018-09-03T00:02:03.956Z,276.88
2018-09-03T00:04:31.487Z,343.37
2018-09-03T00:06:59.068Z,282.25
2018-09-03T00:09:30.062Z,278.02
2018-09-03T00:12:01.691Z,266.95
2018-09-03T00:14:29.240Z,334.92
2018-09-03T00:16:56.790Z,325.85
2018-09-03T00:19:24.353Z,342.37
2018-09-03T00:21:51.888Z,348.87
2018-09-03T00:24:19.410Z,445.23
2018-09-03T00:26:46.968Z,407.55
2018-09-03T00:29:14.494Z,285.95
2018-09-03T00:31:47.797Z,318.45
2018-09-03T00:34:21.118Z,272.90
2018-09-03T00:36:54.573Z,336.62
2018-09-03T00:39:27.869Z,315.37
2018-09-03T00:42:01.162Z,250.55
2018-09-03T00:44:34.460Z,340.75
2018-09-03T00:47:05.098Z,286.12
2018-09-03T00:49:32.669Z,404.18
2018-09-03T00:52:00.278Z,328.85
2018-09-03T00:54:27.919Z,341.02
2018-09-03T00:56:55.509Z,337.40
2018-09-03T00:59:23.053Z,411.85
2018-09-03T01:01:50.621Z,279.90
2018-09-03T01:04:18.156Z,349.45
2018-09-03T01:06:45.730Z,282.55
2018-09-03T01:09:13.246Z,309.43
2018-09-03T01:11:40.790Z,339.05
2018-09-03T01:14:08.308Z,278.58
2018-09-03T01:16:35.840Z,277.22
2018-09-03T01:19:03.384Z,283.40
2018-09-03T01:21:30.924Z,304.98
2018-09-03T01:23:58.447Z,393.33
2018-09-03T01:26:25.997Z,275.77
2018-09-03T01:28:53.531Z,288.40
2018-09-03T01:31:21.414Z,268.70
2018-09-03T01:33:50.756Z,305.90
2018-09-03T01:36:18.724Z,324.40
2018-09-03T01:38:46.352Z,279.32
2018-09-03T01:41:13.973Z,255.15
2018-09-03T01:43:41.517Z,278.10
2018-09-03T01:46:09.052Z,265.32
2018-09-03T01:48:36.565Z,206.28
2018-09-03T01:51:04.315Z,244.72
2018-09-03T01:53:31.842Z,271.95
2018-09-03T01:55:59.350Z,267.95
2018-09-03T01:58:26.890Z,311.87
2018-09-03T02:00:54.428Z,383.87
2018-09-03T02:03:21.952Z,357.27
2018-09-03T02:05:49.519Z,298.52
2018-09-03T02:08:17.077Z,275.30
2018-09-03T02:10:44.627Z,303.12
2018-09-03T02:13:12.183Z,275.15
2018-09-03T02:15:39.786Z,351.75
2018-09-03T02:18:07.322Z,283.65
2018-09-03T02:20:34.873Z,279.95
2018-09-03T02:23:02.662Z,266.93
2018-09-03T02:25:30.224Z,233.17
2018-09-03T02:27:57.779Z,241.82
2018-09-03T02:30:25.665Z,317.77
2018-09-03T02:32:53.255Z,226.07
2018-09-03T02:35:20.806Z,226.32
2018-09-03T02:37:48.350Z,373.20
2018-09-03T02:40:15.891Z,243.70
2018-09-03T02:42:43.441Z,342.50
2018-09-03T02:45:11.021Z,291.82
2018-09-03T02:47:38.792Z,300.38
2018-09-03T02:50:06.756Z,279.70
2018-09-03T02:52:34.714Z,263.73
2018-09-03T02:55:02.267Z,272.12
2018-09-03T02:57:29.817Z,292.25
2018-09-03T02:59:57.358Z,247.07
2018-09-03T03:02:24.907Z,257.65
2018-09-03T03:04:52.450Z,344.45
2018-09-03T03:07:20.009Z,298.95
2018-09-03T03:09:47.539Z,260.30
2018-09-03T03:12:20.993Z,269.00
2018-09-03T03:14:48.726Z,275.73
2018-09-03T03:17:16.265Z,233.30
2018-09-03T03:19:43.807Z,253.80
2018-09-03T03:22:11.353Z,248.55
2018-09-03T03:24:39.534Z,219.95
2018-09-03T03:27:07.148Z,270.12
2018-09-03T03:29:34.682Z,226.52
2018-09-03T03:32:02.279Z,196.12
2018-09-03T03:34:29.844Z,221.43
2018-09-03T03:36:57.414Z,216.57
2018-09-03T03:39:24.976Z,200.45
2018-09-03T03:41:52.527Z,199.42
2018-09-03T03:44:20.071Z,226.42
2018-09-03T03:46:47.620Z,170.02
2018-09-03T03:49:15.272Z,259.10
2018-09-03T03:51:42.812Z,222.60
2018-09-03T03:54:10.364Z,261.87
2018-09-03T03:56:37.911Z,216.50
2018-09-03T03:59:05.487Z,227.38
2018-09-03T04:01:33.041Z,208.40
2018-09-03T04:04:00.585Z,238.75
2018-09-03T04:06:28.203Z,215.40
2018-09-03T04:08:55.746Z,261.48
2018-09-03T04:11:23.290Z,232.52
2018-09-03T04:13:50.811Z,182.45
2018-09-03T04:16:18.348Z,243.27
2018-09-03T04:18:45.909Z,254.15
2018-09-03T04:21:13.469Z,191.85
2018-09-03T04:23:41.023Z,211.70
2018-09-03T04:26:08.572Z,206.25
2018-09-03T04:28:36.135Z,166.37
2018-09-03T04:31:03.696Z,190.82
2018-09-03T04:33:31.242Z,183.82
2018-09-03T04:35:59.010Z,207.55
2018-09-03T04:38:26.541Z,202.30
2018-09-03T04:40:54.092Z,245.12
2018-09-03T04:43:21.651Z,263.70
2018-09-03T04:45:49.217Z,251.75
2018-09-03T04:48:16.753Z,373.93
2018-09-03T04:50:44.291Z,365.73
2018-09-03T04:53:11.827Z,290.90
2018-09-03T04:55:39.359Z,284.20
2018-09-03T04:58:06.896Z,291.08
2018-09-03T05:00:34.439Z,305.05
2018-09-03T05:03:01.974Z,338.43
2018-09-03T05:05:29.525Z,299.42
2018-09-03T05:07:57.066Z,321.82
2018-09-03T05:10:24.587Z,351.67
2018-09-03T05:12:52.082Z,394.05
2018-09-03T05:15:19.611Z,413.03
2018-09-03T05:17:47.181Z,359.77
2018-09-03T05:20:14.707Z,416.85
2018-09-03T05:22:42.252Z,439.78
2018-09-03T05:25:09.796Z,436.05
2018-09-03T05:27:37.328Z,451.63
2018-09-03T05:30:06.250Z,638.75
2018-09-03T05:32:33.801Z,539.80
2018-09-03T05:35:01.328Z,554.70
2018-09-03T05:37:28.846Z,536.60
2018-09-03T05:40:04.211Z,614.95
2018-09-03T05:42:31.748Z,485.65
2018-09-03T05:44:59.284Z,545.62
2018-09-03T05:47:26.795Z,567.50
2018-09-03T05:49:54.323Z,498.62
2018-09-03T05:52:21.872Z,502.30
2018-09-03T05:54:49.400Z,529.70
2018-09-03T05:57:16.922Z,425.40
2018-09-03T05:59:44.430Z,393.82
2018-09-03T06:02:11.938Z,467.48
2018-09-03T06:04:39.563Z,345.75
2018-09-03T06:07:07.070Z,342.48
2018-09-03T06:09:34.602Z,271.35
2018-09-03T06:12:02.136Z,239.88
2018-09-03T06:14:29.665Z,239.32
2018-09-03T06:16:57.182Z,251.58
2018-09-03T06:19:24.720Z,257.20
2018-09-03T06:21:52.230Z,285.32
2018-09-03T06:24:19.771Z,266.65
2018-09-03T06:26:47.295Z,240.43
2018-09-03T06:29:14.834Z,233.72
2018-09-03T06:31:49.164Z,231.15
2018-09-03T06:34:16.678Z,242.20
2018-09-03T06:36:44.209Z,224.98
2018-09-03T06:39:11.855Z,240.70
2018-09-03T06:41:39.294Z,232.90
2018-09-03T06:44:06.825Z,187.20
2018-09-03T06:46:34.335Z,177.10
2018-09-03T06:49:01.863Z,173.28
2018-09-03T06:51:29.389Z,197.57
2018-09-03T06:53:56.945Z,184.37
2018-09-03T06:56:24.479Z,156.63
2018-09-03T06:58:52.036Z,159.52
2018-09-03T07:01:20.557Z,161.03
2018-09-03T07:03:48.071Z,146.57
2018-09-03T07:06:15.619Z,138.85
2018-09-03T07:08:43.164Z,127.62
2018-09-03T07:11:11.363Z,119.62
2018-09-03T07:13:38.914Z,135.32
2018-09-03T07:16:06.446Z,114.80
2018-09-03T07:18:33.999Z,120.08
2018-09-03T07:21:01.515Z,105.55
2018-09-03T07:23:29.069Z,111.72
2018-09-03T07:25:56.626Z,95.55
2018-09-03T07:28:24.165Z,80.65
2018-09-03T07:30:51.719Z,81.22
2018-09-03T07:33:19.257Z,76.67
2018-09-03T07:35:46.815Z,70.42
2018-09-03T07:38:14.344Z,66.25
2018-09-03T07:40:41.916Z,73.85
2018-09-03T07:43:09.497Z,64.87
2018-09-03T07:45:37.035Z,68.90
2018-09-03T07:48:04.628Z,67.30
2018-09-03T07:50:32.174Z,56.95
2018-09-03T07:52:59.721Z,55.25
2018-09-03T07:55:27.269Z,54.85
2018-09-03T07:57:54.821Z,51.95
2018-09-03T08:00:22.359Z,53.30
2018-09-03T08:02:49.904Z,49.40
2018-09-03T08:05:17.470Z,52.35
2018-09-03T08:07:45.017Z,55.43
2018-09-03T08:10:12.558Z,52.48
2018-09-03T08:12:40.091Z,53.60
2018-09-03T08:15:08.044Z,55.73
2018-09-03T08:17:35.603Z,49.70
2018-09-03T08:20:03.263Z,52.38
2018-09-03T08:22:30.849Z,48.23
2018-09-03T08:24:58.457Z,48.90
2018-09-03T08:27:26.028Z,47.05
2018-09-03T08:29:53.580Z,46.15
2018-09-03T08:32:21.117Z,45.63
2018-09-03T08:34:48.657Z,46.60
2018-09-03T08:37:16.205Z,43.73
2018-09-03T08:39:43.740Z,42.93
2018-09-03T08:42:11.320Z,48.52
2018-09-03T08:44:38.944Z,42.23
2018-09-03T08:47:06.706Z,42.70
2018-09-03T08:49:34.227Z,40.85
2018-09-03T08:52:01.927Z,42.50
2018-09-03T08:54:29.511Z,42.05
2018-09-03T08:56:57.039Z,39.70
2018-09-03T08:59:24.583Z,38.70
2018-09-03T09:01:52.112Z,38.33
2018-09-03T09:04:19.637Z,39.90
2018-09-03T09:06:47.175Z,39.63
2018-09-03T09:09:14.749Z,40.00
2018-09-03T09:11:42.338Z,40.28
2018-09-03T09:14:09.825Z,39.48
2018-09-03T09:16:37.384Z,37.23
2018-09-03T09:19:11.718Z,36.53
2018-09-03T09:21:39.294Z,34.10
2018-09-03T09:24:06.832Z,34.18
2018-09-03T09:26:34.391Z,35.10
2018-09-03T09:29:01.971Z,32.73
2018-09-03T09:31:29.540Z,32.28
2018-09-03T09:33:57.089Z,30.45
2018-09-03T09:36:24.654Z,31.23
2018-09-03T09:38:52.213Z,32.73
2018-09-03T09:41:19.806Z,26.17
2018-09-03T09:43:47.321Z,26.10
2018-09-03T09:46:14.894Z,24.47
2018-09-03T09:48:42.455Z,21.77
2018-09-03T09:51:10.013Z,22.75
2018-09-03T09:53:37.558Z,25.27
2018-09-03T09:56:05.121Z,25.85
2018-09-03T09:58:32.912Z,25.08
2018-09-03T10:01:06.255Z,25.35
2018-09-03T10:03:33.954Z,26.17
2018-09-03T10:06:01.638Z,24.82
2018-09-03T10:08:29.176Z,25.25
2018-09-03T10:10:56.715Z,26.40
2018-09-03T10:13:24.252Z,26.90
2018-09-03T10:15:51.788Z,24.55
2018-09-03T10:18:19.306Z,27.75
2018-09-03T10:20:46.833Z,27.90
2018-09-03T10:23:14.391Z,28.15
2018-09-03T10:25:41.910Z,28.05
2018-09-03T10:28:09.429Z,28.47
2018-09-03T10:30:36.958Z,29.30
2018-09-03T10:33:04.494Z,26.35
2018-09-03T10:35:32.019Z,25.85
2018-09-03T10:37:59.561Z,25.45
2018-09-03T10:40:27.131Z,25.77
2018-09-03T10:42:55.355Z,26.90
2018-09-03T10:45:22.912Z,24.07
2018-09-03T10:47:50.431Z,23.65
2018-09-03T10:50:17.955Z,23.00
2018-09-03T10:52:45.493Z,23.00
2018-09-03T10:55:13.042Z,24.18
2018-09-03T10:57:40.589Z,22.77
2018-09-03T11:00:08.136Z,22.58
2018-09-03T11:02:35.677Z,23.77
2018-09-03T11:05:03.215Z,21.50
2018-09-03T11:07:30.758Z,21.57
2018-09-03T11:09:58.304Z,22.13
2018-09-03T11:12:25.881Z,21.40
2018-09-03T11:14:53.419Z,20.77
2018-09-03T11:17:20.990Z,22.67
2018-09-03T11:19:53.720Z,19.20
2018-09-03T11:22:21.576Z,19.52
2018-09-03T11:24:49.145Z,19.90
2018-09-03T11:27:16.694Z,19.25
2018-09-03T11:29:44.231Z,19.25
2018-09-03T11:32:11.782Z,19.52
2018-09-03T11:34:39.435Z,20.02
2018-09-03T11:37:07.466Z,21.50
2018-09-03T11:39:35.017Z,19.82
2018-09-03T11:42:02.584Z,19.10
2018-09-03T11:44:30.130Z,19.85
2018-09-03T11:46:57.693Z,19.15
2018-09-03T11:49:25.261Z,19.00
2018-09-03T11:51:52.821Z,19.12
2018-09-03T11:54:20.462Z,17.65
2018-09-03T11:56:47.997Z,19.23
2018-09-03T11:59:15.535Z,19.77
2018-09-03T12:01:43.089Z,20.15
2018-09-03T12:04:10.649Z,19.90
2018-09-03T12:06:38.263Z,19.27
2018-09-03T12:09:13.855Z,19.77
2018-09-03T12:11:41.396Z,23.32
2018-09-03T12:14:13.547Z,18.87
2018-09-03T12:16:41.114Z,19.52
2018-09-03T12:19:08.635Z,19.27
2018-09-03T12:21:36.191Z,20.72
2018-09-03T12:24:03.724Z,19.75
2018-09-03T12:26:31.260Z,18.23
2018-09-03T12:28:58.832Z,20.50
2018-09-03T12:31:26.447Z,18.75
2018-09-03T12:33:53.948Z,19.67
2018-09-03T12:36:21.496Z,18.50
2018-09-03T12:38:49.034Z,20.37
2018-09-03T12:41:16.612Z,19.77
2018-09-03T12:43:44.186Z,20.27
2018-09-03T12:46:11.747Z,21.12
2018-09-03T12:48:39.693Z,21.12
2018-09-03T12:51:07.272Z,20.35
2018-09-03T12:53:34.833Z,21.10
2018-09-03T12:56:02.830Z,20.60
2018-09-03T12:58:30.420Z,20.80
2018-09-03T13:00:58.004Z,21.15
2018-09-03T13:03:25.497Z,22.35
2018-09-03T13:05:53.085Z,22.25
2018-09-03T13:08:20.620Z,21.87
2018-09-03T13:10:48.159Z,23.73
2018-09-03T13:13:15.730Z,22.02
2018-09-03T13:15:43.267Z,26.23
2018-09-03T13:18:10.821Z,22.37
2018-09-03T13:20:38.361Z,23.22
2018-09-03T13:23:05.894Z,23.67
2018-09-03T13:25:33.418Z,27.65
2018-09-03T13:28:00.951Z,21.93
2018-09-03T13:30:28.488Z,22.52
2018-09-03T13:32:56.091Z,21.37
2018-09-03T13:35:23.886Z,22.07
2018-09-03T13:37:51.415Z,21.02
2018-09-03T13:40:18.945Z,22.35
2018-09-03T13:42:46.493Z,21.52
2018-09-03T13:45:14.006Z,24.57
2018-09-03T13:47:41.546Z,21.57
2018-09-03T13:50:09.073Z,20.88
2018-09-03T13:52:36.609Z,21.52
2018-09-03T13:55:04.398Z,20.55
2018-09-03T13:57:31.885Z,20.27
2018-09-03T13:59:59.411Z,20.80
2018-09-03T14:02:26.941Z,20.15
2018-09-03T14:04:54.536Z,19.67
2018-09-03T14:07:22.037Z,20.00
2018-09-03T14:09:49.688Z,20.43
2018-09-03T14:12:17.199Z,21.05
2018-09-03T14:14:44.731Z,20.90
2018-09-03T14:17:12.267Z,20.62
2018-09-03T14:19:39.824Z,20.25
2018-09-03T14:22:07.400Z,20.32
2018-09-03T14:24:34.928Z,20.55
2018-09-03T14:27:02.461Z,19.95
2018-09-03T14:29:30.808Z,19.48
2018-09-03T14:31:58.331Z,19.00
2018-09-03T14:34:25.868Z,19.30
2018-09-03T14:36:53.403Z,17.55
2018-09-03T14:39:27.711Z,15.83
2018-09-03T14:41:55.227Z,13.38
2018-09-03T14:44:22.792Z,14.40
2018-09-03T14:46:57.090Z,13.80
2018-09-03T14:49:24.676Z,13.32
2018-09-03T14:51:52.159Z,14.00
2018-09-03T14:54:19.667Z,16.40
2018-09-03T14:56:47.229Z,15.43
2018-09-03T14:59:14.742Z,13.35
2018-09-03T15:01:42.267Z,13.20
2018-09-03T15:04:09.843Z,13.28
2018-09-03T15:06:37.410Z,13.60
2018-09-03T15:09:06.915Z,13.15
2018-09-03T15:11:34.456Z,14.18
2018-09-03T15:14:02.028Z,14.43
2018-09-03T15:16:31.250Z,13.50
2018-09-03T15:18:59.860Z,14.15
2018-09-03T15:21:27.386Z,12.88
2018-09-03T15:23:54.946Z,14.03
2018-09-03T15:26:22.578Z,14.53
2018-09-03T15:28:50.060Z,14.05
2018-09-03T15:31:17.840Z,13.45
2018-09-03T15:33:45.426Z,14.18
2018-09-03T15:36:13.089Z,13.75
2018-09-03T15:38:40.601Z,13.95
2018-09-03T15:41:08.605Z,13.88
2018-09-03T15:43:36.244Z,13.85
2018-09-03T15:46:05.170Z,14.50
2018-09-03T15:48:32.760Z,14.07
2018-09-03T15:51:00.315Z,17.27
2018-09-03T15:53:28.002Z,13.78
2018-09-03T15:55:55.822Z,14.18
2018-09-03T15:58:23.444Z,15.98
2018-09-03T16:00:51.001Z,14.35
2018-09-03T16:03:18.554Z,18.32
2018-09-03T16:05:46.078Z,13.98
2018-09-03T16:08:13.598Z,13.80
2018-09-03T16:10:41.129Z,15.23
2018-09-03T16:13:08.654Z,16.20
2018-09-03T16:15:36.191Z,14.95
2018-09-03T16:18:04.031Z,16.15
2018-09-03T16:20:31.612Z,13.88
2018-09-03T16:22:59.215Z,14.63
2018-09-03T16:25:26.769Z,14.40
2018-09-03T16:27:54.376Z,13.90
2018-09-03T16:30:21.855Z,14.23
2018-09-03T16:32:49.375Z,13.25
2018-09-03T16:35:16.915Z,14.47
2018-09-03T16:37:44.463Z,15.80
2018-09-03T16:40:12.025Z,15.80
2018-09-03T16:42:39.578Z,13.78
2018-09-03T16:45:07.185Z,15.72
2018-09-03T16:47:34.741Z,15.10
2018-09-03T16:50:02.309Z,16.93
2018-09-03T16:52:29.826Z,14.85
2018-09-03T16:54:57.361Z,14.30
2018-09-03T16:57:24.885Z,15.90
2018-09-03T16:59:52.425Z,15.15
2018-09-03T17:02:19.942Z,15.25
2018-09-03T17:04:47.488Z,14.85
2018-09-03T17:07:15.038Z,14.63
2018-09-03T17:09:42.584Z,16.02
2018-09-03T17:12:10.120Z,13.93
2018-09-03T17:14:37.643Z,14.30
2018-09-03T17:17:05.525Z,15.60
2018-09-03T17:19:33.047Z,14.80
2018-09-03T17:22:00.555Z,13.58
2018-09-03T17:24:28.090Z,15.05
2018-09-03T17:26:55.611Z,15.60
2018-09-03T17:29:23.141Z,14.55
2018-09-03T17:31:50.664Z,18.48
2018-09-03T17:34:18.209Z,14.60
2018-09-03T17:36:45.740Z,19.12
2018-09-03T17:39:13.271Z,15.85
2018-09-03T17:41:40.865Z,14.53
2018-09-03T17:44:08.398Z,16.00
2018-09-03T17:46:35.937Z,17.85
2018-09-03T17:49:03.504Z,16.55
2018-09-03T17:51:31.028Z,15.88
2018-09-03T17:53:58.534Z,15.80
2018-09-03T17:56:26.066Z,15.18
2018-09-03T17:58:53.624Z,16.60
2018-09-03T18:01:21.147Z,14.93
2018-09-03T18:03:48.850Z,17.05
2018-09-03T18:06:16.415Z,16.93
2018-09-03T18:08:43.966Z,17.07
2018-09-03T18:11:11.491Z,15.38
2018-09-03T18:13:39.016Z,16.80
2018-09-03T18:16:06.553Z,16.00
2018-09-03T18:18:34.066Z,15.90
2018-09-03T18:21:01.598Z,16.25
2018-09-03T18:23:29.106Z,15.28
2018-09-03T18:25:56.644Z,16.23
2018-09-03T18:28:24.202Z,16.73
2018-09-03T18:30:51.751Z,19.55
2018-09-03T18:33:19.265Z,16.73
2018-09-03T18:35:46.906Z,18.27
2018-09-03T18:38:14.437Z,20.57
2018-09-03T18:40:41.966Z,18.17
2018-09-03T18:43:09.485Z,18.62
2018-09-03T18:45:37.036Z,17.48
2018-09-03T18:48:04.767Z,18.57
2018-09-03T18:50:32.290Z,18.62
2018-09-03T18:52:59.846Z,20.80
2018-09-03T18:55:27.375Z,17.70
2018-09-03T18:57:54.911Z,17.30
2018-09-03T19:00:22.485Z,17.07
2018-09-03T19:02:50.008Z,21.02
2018-09-03T19:05:17.548Z,19.42
2018-09-03T19:07:45.076Z,20.27
2018-09-03T19:10:12.610Z,21.30
2018-09-03T19:12:40.127Z,19.27
2018-09-03T19:15:14.685Z,19.87
2018-09-03T19:17:49.045Z,19.00
2018-09-03T19:20:16.573Z,19.42
2018-09-03T19:22:44.095Z,19.12
2018-09-03T19:25:11.633Z,19.05
2018-09-03T19:27:39.172Z,19.80
2018-09-03T19:30:06.868Z,19.23
2018-09-03T19:32:34.400Z,19.30
2018-09-03T19:35:01.942Z,20.43
2018-09-03T19:37:29.475Z,20.43
2018-09-03T19:39:57.018Z,23.00
2018-09-03T19:42:24.561Z,24.80
2018-09-03T19:44:52.091Z,18.90
2018-09-03T19:47:19.624Z,20.17
2018-09-03T19:49:47.156Z,18.48
2018-09-03T19:52:14.684Z,19.77
2018-09-03T19:54:42.207Z,21.87
2018-09-03T19:57:09.732Z,20.68
2018-09-03T19:59:37.481Z,18.25
2018-09-03T20:02:05.178Z,18.85
2018-09-03T20:04:32.691Z,22.40
2018-09-03T20:07:00.285Z,17.98
2018-09-03T20:09:45.623Z,21.05
2018-09-03T20:12:13.203Z,19.40
2018-09-03T20:14:40.754Z,20.20
2018-09-03T20:17:08.329Z,21.37
2018-09-03T20:19:35.850Z,22.13
2018-09-03T20:22:03.403Z,20.92
2018-09-03T20:24:30.947Z,20.52
2018-09-03T20:26:58.512Z,23.65
2018-09-03T20:29:26.043Z,23.52
2018-09-03T20:31:53.605Z,20.57
2018-09-03T20:34:21.147Z,24.55
2018-09-03T20:36:48.687Z,20.37
2018-09-03T20:39:16.220Z,21.50
2018-09-03T20:41:43.758Z,21.80
2018-09-03T20:44:11.319Z,22.13
2018-09-03T20:46:38.939Z,22.60
2018-09-03T20:49:06.431Z,21.80
2018-09-03T20:51:33.996Z,21.95
2018-09-03T20:54:01.535Z,24.02
2018-09-03T20:56:29.082Z,21.60
2018-09-03T20:58:56.627Z,21.77
2018-09-03T21:01:24.228Z,21.50
2018-09-03T21:03:51.779Z,20.55
2018-09-03T21:06:19.331Z,21.10
2018-09-03T21:08:46.882Z,21.45
2018-09-03T21:11:32.740Z,23.75
2018-09-03T21:20:05.779Z,21.93
2018-09-03T21:22:33.340Z,21.68
2018-09-03T21:25:00.888Z,24.85
2018-09-03T21:27:28.456Z,20.75
2018-09-03T21:29:56.153Z,23.22
2018-09-03T21:32:23.719Z,23.22
2018-09-03T21:34:51.292Z,22.70
2018-09-03T21:43:18.226Z,24.25
2018-09-03T21:45:45.770Z,25.68
2018-09-03T21:48:13.317Z,23.12
2018-09-03T21:50:40.888Z,26.95
2018-09-03T21:53:08.453Z,25.25
2018-09-03T21:55:35.995Z,23.70
2018-09-03T21:58:03.549Z,29.98
2018-09-03T22:00:31.128Z,25.77
2018-09-03T22:02:58.671Z,25.30
2018-09-03T22:05:26.228Z,25.80
2018-09-03T22:07:53.785Z,25.82
2018-09-03T22:10:21.334Z,26.55
2018-09-03T22:12:48.892Z,26.50
2018-09-03T22:15:16.434Z,28.07
2018-09-03T22:17:43.993Z,27.40
2018-09-03T22:20:11.556Z,28.02
2018-09-03T22:22:39.116Z,28.92
2018-09-03T22:25:06.861Z,29.40
2018-09-03T22:27:34.424Z,32.42
2018-09-03T22:30:01.991Z,33.05
2018-09-03T22:32:29.563Z,28.47
2018-09-03T22:34:57.086Z,30.70
2018-09-03T22:37:24.636Z,30.25
2018-09-03T22:39:52.181Z,30.40
2018-09-03T22:42:22.865Z,31.30
2018-09-03T22:44:50.416Z,33.33
2018-09-03T22:47:17.957Z,32.48
2018-09-03T22:49:45.497Z,31.75
2018-09-03T22:52:13.047Z,32.17
2018-09-03T22:54:40.587Z,35.25
2018-09-03T22:57:08.124Z,30.20
2018-09-03T22:59:35.649Z,30.52
2018-09-03T23:02:03.212Z,29.02
2018-09-03T23:04:38.267Z,29.87
2018-09-03T23:07:05.816Z,32.70
2018-09-03T23:09:33.354Z,29.02
2018-09-03T23:12:00.891Z,28.52
2018-09-03T23:14:28.430Z,32.00
2018-09-03T23:16:55.964Z,30.00
2018-09-03T23:19:23.485Z,28.60
2018-09-03T23:21:51.018Z,29.72
2018-09-03T23:24:18.576Z,32.42
2018-09-03T23:26:46.118Z,30.05
2018-09-03T23:29:13.635Z,27.07
2018-09-03T23:31:41.187Z,27.90
2018-09-03T23:34:08.695Z,29.10
2018-09-03T23:36:36.233Z,29.15
2018-09-03T23:39:04.607Z,30.17
2018-09-03T23:41:32.118Z,31.95
2018-09-03T23:43:59.646Z,27.85
2018-09-03T23:46:27.177Z,28.83
2018-09-03T23:48:54.708Z,28.27
2018-09-03T23:51:22.246Z,30.92
2018-09-03T23:53:49.787Z,27.90
2018-09-03T23:56:17.312Z,27.30
2018-09-03T23:58:44.852Z,30.70
